sensor_id;sensor_type;location;lat;lon;timestamp;temperature;humidity
8882;DHT22;4477;48.736;9.176;2022-09-13T00:01:32;10.80;99.90
8882;DHT22;4477;48.736;9.176;2022-09-13T00:03:59;10.80;99.90
8882;DHT22;4477;48.736;9.176;2022-09-13T00:06:25;10.80;99.90
8882;DHT22;4477;48.736;9.176;2022-09-13T00:08:53;10.80;99.90
8882;DHT22;4477;48.736;9.176;2022-09-13T00:11:23;10.80;99.90
8882;DHT22;4477;48.736;9.176;2022-09-13T00:13:50;10.80;99.90
8882;DHT22;4477;48.736;9.176;2022-09-13T00:16:20;10.80;99.90
8882;DHT22;4477;48.736;9.176;2022-09-13T00:18:47;10.90;99.90
8882;DHT22;4477;48.736;9.176;2022-09-13T00:21:15;10.90;99.90
8882;DHT22;4477;48.736;9.176;2022-09-13T00:23:43;11.00;99.90
8882;DHT22;4477;48.736;9.176;2022-09-13T00:26:13;11.00;99.90
8882;DHT22;4477;48.736;9.176;2022-09-13T00:28:40;10.90;99.90
8882;DHT22;4477;48.736;9.176;2022-09-13T00:31:08;10.90;99.90
8882;DHT22;4477;48.736;9.176;2022-09-13T00:33:35;10.90;99.90
8882;DHT22;4477;48.736;9.176;2022-09-13T00:36:04;10.90;99.90
8882;DHT22;4477;48.736;9.176;2022-09-13T00:38:30;10.80;99.90
8882;DHT22;4477;48.736;9.176;2022-09-13T00:40:57;10.80;99.90
8882;DHT22;4477;48.736;9.176;2022-09-13T00:43:41;10.80;99.90
8882;DHT22;4477;48.736;9.176;2022-09-13T00:46:10;10.80;99.90
8882;DHT22;4477;48.736;9.176;2022-09-13T00:48:37;10.80;99.90
8882;DHT22;4477;48.736;9.176;2022-09-13T00:51:05;11.10;99.90
8882;DHT22;4477;48.736;9.176;2022-09-13T00:53:35;11.40;99.90
8882;DHT22;4477;48.736;9.176;2022-09-13T00:56:06;11.60;99.90
8882;DHT22;4477;48.736;9.176;2022-09-13T00:58:39;11.80;99.90
8882;DHT22;4477;48.736;9.176;2022-09-13T01:01:09;11.80;99.90
8882;DHT22;4477;48.736;9.176;2022-09-13T01:03:37;11.80;99.90
8882;DHT22;4477;48.736;9.176;2022-09-13T01:06:07;11.70;99.90
8882;DHT22;4477;48.736;9.176;2022-09-13T01:08:36;11.60;99.90
8882;DHT22;4477;48.736;9.176;2022-09-13T01:11:05;11.50;99.90
8882;DHT22;4477;48.736;9.176;2022-09-13T01:13:38;11.40;99.90
8882;DHT22;4477;48.736;9.176;2022-09-13T01:16:05;11.30;99.90
8882;DHT22;4477;48.736;9.176;2022-09-13T01:18:32;11.10;99.90
8882;DHT22;4477;48.736;9.176;2022-09-13T01:24:48;10.80;99.90
8882;DHT22;4477;48.736;9.176;2022-09-13T01:27:27;10.70;99.90
8882;DHT22;4477;48.736;9.176;2022-09-13T01:30:12;10.60;99.90
8882;DHT22;4477;48.736;9.176;2022-09-13T01:35:59;10.40;99.90
8882;DHT22;4477;48.736;9.176;2022-09-13T01:38:43;10.40;99.90
8882;DHT22;4477;48.736;9.176;2022-09-13T01:41:25;10.30;99.90
8882;DHT22;4477;48.736;9.176;2022-09-13T01:43:57;10.30;99.90
8882;DHT22;4477;48.736;9.176;2022-09-13T01:46:29;10.20;99.90
8882;DHT22;4477;48.736;9.176;2022-09-13T01:49:02;10.20;99.90
8882;DHT22;4477;48.736;9.176;2022-09-13T01:51:33;10.10;99.90
8882;DHT22;4477;48.736;9.176;2022-09-13T01:54:12;10.20;99.90
8882;DHT22;4477;48.736;9.176;2022-09-13T01:56:44;10.10;99.90
8882;DHT22;4477;48.736;9.176;2022-09-13T01:59:20;10.20;99.90
8882;DHT22;4477;48.736;9.176;2022-09-13T02:01:54;10.40;99.90
8882;DHT22;4477;48.736;9.176;2022-09-13T02:04:24;10.50;99.90
8882;DHT22;4477;48.736;9.176;2022-09-13T02:06:59;10.50;99.90
8882;DHT22;4477;48.736;9.176;2022-09-13T02:12:01;10.50;99.90
8882;DHT22;4477;48.736;9.176;2022-09-13T02:14:33;10.40;99.90
8882;DHT22;4477;48.736;9.176;2022-09-13T02:17:05;10.30;99.90
8882;DHT22;4477;48.736;9.176;2022-09-13T02:19:36;10.30;99.90
8882;DHT22;4477;48.736;9.176;2022-09-13T02:22:06;10.30;99.90
8882;DHT22;4477;48.736;9.176;2022-09-13T02:24:36;10.40;99.90
8882;DHT22;4477;48.736;9.176;2022-09-13T02:27:06;10.40;99.90
8882;DHT22;4477;48.736;9.176;2022-09-13T02:29:35;10.30;99.90
8882;DHT22;4477;48.736;9.176;2022-09-13T02:32:08;10.20;99.90
8882;DHT22;4477;48.736;9.176;2022-09-13T02:34:38;10.20;99.90
8882;DHT22;4477;48.736;9.176;2022-09-13T02:37:08;10.10;99.90
8882;DHT22;4477;48.736;9.176;2022-09-13T02:39:41;10.10;99.90
8882;DHT22;4477;48.736;9.176;2022-09-13T02:42:13;10.10;99.90
8882;DHT22;4477;48.736;9.176;2022-09-13T02:44:43;10.20;99.90
8882;DHT22;4477;48.736;9.176;2022-09-13T02:47:21;10.20;99.90
8882;DHT22;4477;48.736;9.176;2022-09-13T02:49:56;10.10;99.90
8882;DHT22;4477;48.736;9.176;2022-09-13T02:52:34;10.10;99.90
8882;DHT22;4477;48.736;9.176;2022-09-13T02:55:12;10.10;99.90
8882;DHT22;4477;48.736;9.176;2022-09-13T02:57:50;10.20;99.90
8882;DHT22;4477;48.736;9.176;2022-09-13T03:00:17;10.30;99.90
8882;DHT22;4477;48.736;9.176;2022-09-13T03:02:47;10.30;99.90
8882;DHT22;4477;48.736;9.176;2022-09-13T03:05:16;10.30;99.90
8882;DHT22;4477;48.736;9.176;2022-09-13T03:07:42;10.30;99.90
8882;DHT22;4477;48.736;9.176;2022-09-13T03:10:11;10.30;99.90
8882;DHT22;4477;48.736;9.176;2022-09-13T03:12:54;10.30;99.90
8882;DHT22;4477;48.736;9.176;2022-09-13T03:15:40;10.30;99.90
8882;DHT22;4477;48.736;9.176;2022-09-13T03:18:19;10.50;99.90
8882;DHT22;4477;48.736;9.176;2022-09-13T03:20:58;10.70;99.90
8882;DHT22;4477;48.736;9.176;2022-09-13T03:23:34;10.70;99.90
8882;DHT22;4477;48.736;9.176;2022-09-13T03:26:23;10.70;99.90
8882;DHT22;4477;48.736;9.176;2022-09-13T03:29:08;10.60;99.90
8882;DHT22;4477;48.736;9.176;2022-09-13T03:31:42;10.50;99.90
8882;DHT22;4477;48.736;9.176;2022-09-13T03:34:18;10.50;99.90
8882;DHT22;4477;48.736;9.176;2022-09-13T03:36:52;10.50;99.90
8882;DHT22;4477;48.736;9.176;2022-09-13T03:39:23;10.40;99.90
8882;DHT22;4477;48.736;9.176;2022-09-13T03:41:56;10.50;99.90
8882;DHT22;4477;48.736;9.176;2022-09-13T03:44:28;10.60;99.90
8882;DHT22;4477;48.736;9.176;2022-09-13T03:46:58;10.60;99.90
8882;DHT22;4477;48.736;9.176;2022-09-13T03:49:28;10.60;99.90
8882;DHT22;4477;48.736;9.176;2022-09-13T03:51:57;10.50;99.90
8882;DHT22;4477;48.736;9.176;2022-09-13T03:54:27;10.50;99.90
8882;DHT22;4477;48.736;9.176;2022-09-13T03:57:13;10.40;99.90
8882;DHT22;4477;48.736;9.176;2022-09-13T03:59:44;10.30;99.90
8882;DHT22;4477;48.736;9.176;2022-09-13T04:02:11;10.30;99.90
8882;DHT22;4477;48.736;9.176;2022-09-13T04:04:41;10.20;99.90
8882;DHT22;4477;48.736;9.176;2022-09-13T04:07:10;10.40;99.90
8882;DHT22;4477;48.736;9.176;2022-09-13T04:09:38;10.30;99.90
8882;DHT22;4477;48.736;9.176;2022-09-13T04:12:05;10.10;99.90
8882;DHT22;4477;48.736;9.176;2022-09-13T04:14:32;10.10;99.90
8882;DHT22;4477;48.736;9.176;2022-09-13T04:16:59;10.30;99.90
8882;DHT22;4477;48.736;9.176;2022-09-13T04:19:26;10.30;99.90
8882;DHT22;4477;48.736;9.176;2022-09-13T04:21:54;10.20;99.90
8882;DHT22;4477;48.736;9.176;2022-09-13T04:24:24;10.10;99.90
8882;DHT22;4477;48.736;9.176;2022-09-13T04:26:51;10.00;99.90
8882;DHT22;4477;48.736;9.176;2022-09-13T04:29:19;9.90;99.90
8882;DHT22;4477;48.736;9.176;2022-09-13T04:31:47;9.90;99.90
8882;DHT22;4477;48.736;9.176;2022-09-13T04:34:14;10.00;99.90
8882;DHT22;4477;48.736;9.176;2022-09-13T04:36:41;10.00;99.90
8882;DHT22;4477;48.736;9.176;2022-09-13T04:39:10;10.10;99.90
8882;DHT22;4477;48.736;9.176;2022-09-13T04:41:38;10.10;99.90
8882;DHT22;4477;48.736;9.176;2022-09-13T04:44:05;10.20;99.90
8882;DHT22;4477;48.736;9.176;2022-09-13T04:46:32;10.30;99.90
8882;DHT22;4477;48.736;9.176;2022-09-13T04:48:59;10.30;99.90
8882;DHT22;4477;48.736;9.176;2022-09-13T04:51:25;10.40;99.90
8882;DHT22;4477;48.736;9.176;2022-09-13T04:53:53;10.40;99.90
8882;DHT22;4477;48.736;9.176;2022-09-13T04:56:22;10.50;99.90
8882;DHT22;4477;48.736;9.176;2022-09-13T04:58:51;10.60;99.90
8882;DHT22;4477;48.736;9.176;2022-09-13T05:01:18;10.60;99.90
8882;DHT22;4477;48.736;9.176;2022-09-13T05:03:45;10.70;99.90
8882;DHT22;4477;48.736;9.176;2022-09-13T05:06:13;10.90;99.90
8882;DHT22;4477;48.736;9.176;2022-09-13T05:08:43;10.90;99.90
8882;DHT22;4477;48.736;9.176;2022-09-13T05:11:10;10.90;99.90
8882;DHT22;4477;48.736;9.176;2022-09-13T05:13:38;11.00;99.90
8882;DHT22;4477;48.736;9.176;2022-09-13T05:16:06;11.00;99.90
8882;DHT22;4477;48.736;9.176;2022-09-13T05:18:35;10.90;99.90
8882;DHT22;4477;48.736;9.176;2022-09-13T05:21:03;10.90;99.90
8882;DHT22;4477;48.736;9.176;2022-09-13T05:23:31;10.90;99.90
8882;DHT22;4477;48.736;9.176;2022-09-13T05:26:00;10.90;99.90
8882;DHT22;4477;48.736;9.176;2022-09-13T05:28:28;11.00;99.90
8882;DHT22;4477;48.736;9.176;2022-09-13T05:30:58;11.00;99.90
8882;DHT22;4477;48.736;9.176;2022-09-13T05:33:25;11.10;99.90
8882;DHT22;4477;48.736;9.176;2022-09-13T05:35:53;11.10;99.90
8882;DHT22;4477;48.736;9.176;2022-09-13T05:38:20;11.10;99.90
8882;DHT22;4477;48.736;9.176;2022-09-13T05:40:47;11.10;99.90
8882;DHT22;4477;48.736;9.176;2022-09-13T05:43:14;11.00;99.90
8882;DHT22;4477;48.736;9.176;2022-09-13T05:45:41;11.10;99.90
8882;DHT22;4477;48.736;9.176;2022-09-13T05:48:09;11.10;99.90
8882;DHT22;4477;48.736;9.176;2022-09-13T05:50:36;11.30;99.90
8882;DHT22;4477;48.736;9.176;2022-09-13T05:53:03;11.30;99.90
8882;DHT22;4477;48.736;9.176;2022-09-13T05:55:30;11.40;99.90
8882;DHT22;4477;48.736;9.176;2022-09-13T05:57:58;11.50;99.90
8882;DHT22;4477;48.736;9.176;2022-09-13T06:00:26;11.50;99.90
8882;DHT22;4477;48.736;9.176;2022-09-13T06:02:55;11.70;99.90
8882;DHT22;4477;48.736;9.176;2022-09-13T06:05:23;11.90;99.90
8882;DHT22;4477;48.736;9.176;2022-09-13T06:07:50;12.00;99.90
8882;DHT22;4477;48.736;9.176;2022-09-13T06:10:17;12.30;99.90
8882;DHT22;4477;48.736;9.176;2022-09-13T06:12:44;12.50;99.90
8882;DHT22;4477;48.736;9.176;2022-09-13T06:15:11;12.70;99.90
8882;DHT22;4477;48.736;9.176;2022-09-13T06:17:39;13.00;99.90
8882;DHT22;4477;48.736;9.176;2022-09-13T06:20:06;13.10;99.90
8882;DHT22;4477;48.736;9.176;2022-09-13T06:22:35;13.20;99.90
8882;DHT22;4477;48.736;9.176;2022-09-13T06:25:02;13.30;99.90
8882;DHT22;4477;48.736;9.176;2022-09-13T06:27:29;13.30;99.90
8882;DHT22;4477;48.736;9.176;2022-09-13T06:29:56;13.30;99.90
8882;DHT22;4477;48.736;9.176;2022-09-13T06:32:23;13.20;99.90
8882;DHT22;4477;48.736;9.176;2022-09-13T06:34:50;13.10;99.90
8882;DHT22;4477;48.736;9.176;2022-09-13T06:37:17;13.00;99.90
8882;DHT22;4477;48.736;9.176;2022-09-13T06:39:45;13.10;99.90
8882;DHT22;4477;48.736;9.176;2022-09-13T06:42:12;13.00;99.90
8882;DHT22;4477;48.736;9.176;2022-09-13T06:44:39;13.10;99.90
8882;DHT22;4477;48.736;9.176;2022-09-13T06:47:06;13.30;99.90
8882;DHT22;4477;48.736;9.176;2022-09-13T06:49:33;13.40;99.90
8882;DHT22;4477;48.736;9.176;2022-09-13T06:51:59;13.60;99.90
8882;DHT22;4477;48.736;9.176;2022-09-13T06:54:26;13.70;99.90
8882;DHT22;4477;48.736;9.176;2022-09-13T06:56:55;13.80;99.90
8882;DHT22;4477;48.736;9.176;2022-09-13T06:59:21;14.00;99.90
8882;DHT22;4477;48.736;9.176;2022-09-13T07:01:48;14.20;99.90
8882;DHT22;4477;48.736;9.176;2022-09-13T07:04:17;14.40;99.90
8882;DHT22;4477;48.736;9.176;2022-09-13T07:06:45;14.60;99.90
8882;DHT22;4477;48.736;9.176;2022-09-13T07:09:14;14.80;99.90
8882;DHT22;4477;48.736;9.176;2022-09-13T07:11:43;15.00;99.90
8882;DHT22;4477;48.736;9.176;2022-09-13T07:14:15;15.30;99.90
8882;DHT22;4477;48.736;9.176;2022-09-13T07:16:42;15.70;99.90
8882;DHT22;4477;48.736;9.176;2022-09-13T07:19:12;16.00;99.90
8882;DHT22;4477;48.736;9.176;2022-09-13T07:21:40;16.30;99.90
8882;DHT22;4477;48.736;9.176;2022-09-13T07:24:08;16.50;99.90
8882;DHT22;4477;48.736;9.176;2022-09-13T07:26:36;16.70;99.90
8882;DHT22;4477;48.736;9.176;2022-09-13T07:29:05;16.90;99.90
8882;DHT22;4477;48.736;9.176;2022-09-13T07:31:34;17.00;99.90
8882;DHT22;4477;48.736;9.176;2022-09-13T07:34:03;17.00;99.90
8882;DHT22;4477;48.736;9.176;2022-09-13T07:36:32;17.20;99.90
8882;DHT22;4477;48.736;9.176;2022-09-13T07:38:59;17.50;99.90
8882;DHT22;4477;48.736;9.176;2022-09-13T07:41:28;17.60;99.90
8882;DHT22;4477;48.736;9.176;2022-09-13T07:43:57;17.40;99.90
8882;DHT22;4477;48.736;9.176;2022-09-13T07:46:26;17.50;99.90
8882;DHT22;4477;48.736;9.176;2022-09-13T07:48:59;17.70;99.90
8882;DHT22;4477;48.736;9.176;2022-09-13T07:51:27;17.80;99.90
8882;DHT22;4477;48.736;9.176;2022-09-13T07:53:56;17.80;99.90
8882;DHT22;4477;48.736;9.176;2022-09-13T07:56:25;18.10;99.90
8882;DHT22;4477;48.736;9.176;2022-09-13T07:58:53;18.60;99.90
8882;DHT22;4477;48.736;9.176;2022-09-13T08:01:26;19.30;99.90
8882;DHT22;4477;48.736;9.176;2022-09-13T08:03:54;19.80;99.90
8882;DHT22;4477;48.736;9.176;2022-09-13T08:06:24;20.60;99.90
8882;DHT22;4477;48.736;9.176;2022-09-13T08:08:52;21.30;99.90
8882;DHT22;4477;48.736;9.176;2022-09-13T08:11:21;22.20;99.90
8882;DHT22;4477;48.736;9.176;2022-09-13T08:13:49;23.00;99.90
8882;DHT22;4477;48.736;9.176;2022-09-13T08:16:17;23.40;99.90
8882;DHT22;4477;48.736;9.176;2022-09-13T08:18:44;23.60;98.20
8882;DHT22;4477;48.736;9.176;2022-09-13T08:21:12;23.40;95.90
8882;DHT22;4477;48.736;9.176;2022-09-13T08:23:40;23.30;95.70
8882;DHT22;4477;48.736;9.176;2022-09-13T08:26:08;22.80;95.80
8882;DHT22;4477;48.736;9.176;2022-09-13T08:28:36;22.80;98.40
8882;DHT22;4477;48.736;9.176;2022-09-13T08:31:05;22.70;97.40
8882;DHT22;4477;48.736;9.176;2022-09-13T08:33:33;22.60;97.80
8882;DHT22;4477;48.736;9.176;2022-09-13T08:36:01;22.50;97.30
8882;DHT22;4477;48.736;9.176;2022-09-13T08:38:28;22.60;99.10
8882;DHT22;4477;48.736;9.176;2022-09-13T08:40:59;22.80;98.50
8882;DHT22;4477;48.736;9.176;2022-09-13T08:43:38;22.90;99.00
8882;DHT22;4477;48.736;9.176;2022-09-13T08:46:16;23.30;95.80
8882;DHT22;4477;48.736;9.176;2022-09-13T08:48:48;23.80;94.40
8882;DHT22;4477;48.736;9.176;2022-09-13T08:51:26;24.20;94.20
8882;DHT22;4477;48.736;9.176;2022-09-13T08:53:54;24.50;94.30
8882;DHT22;4477;48.736;9.176;2022-09-13T08:56:30;24.30;91.90
8882;DHT22;4477;48.736;9.176;2022-09-13T08:59:19;23.90;91.60
8882;DHT22;4477;48.736;9.176;2022-09-13T09:01:55;23.30;94.20
8882;DHT22;4477;48.736;9.176;2022-09-13T09:04:34;22.70;94.70
8882;DHT22;4477;48.736;9.176;2022-09-13T09:07:08;22.40;95.50
8882;DHT22;4477;48.736;9.176;2022-09-13T09:09:40;22.30;95.70
8882;DHT22;4477;48.736;9.176;2022-09-13T09:12:16;22.40;97.20
8882;DHT22;4477;48.736;9.176;2022-09-13T09:14:48;23.10;96.20
8882;DHT22;4477;48.736;9.176;2022-09-13T09:17:22;23.80;96.10
8882;DHT22;4477;48.736;9.176;2022-09-13T09:19:53;24.40;95.40
8882;DHT22;4477;48.736;9.176;2022-09-13T09:22:23;24.80;93.10
8882;DHT22;4477;48.736;9.176;2022-09-13T09:24:54;24.80;91.50
8882;DHT22;4477;48.736;9.176;2022-09-13T09:27:23;24.30;90.50
8882;DHT22;4477;48.736;9.176;2022-09-13T09:29:52;23.90;92.40
8882;DHT22;4477;48.736;9.176;2022-09-13T09:32:39;23.90;92.40
8882;DHT22;4477;48.736;9.176;2022-09-13T09:35:19;24.10;93.70
8882;DHT22;4477;48.736;9.176;2022-09-13T09:38:05;25.00;93.00
8882;DHT22;4477;48.736;9.176;2022-09-13T09:40:37;25.70;91.80
8882;DHT22;4477;48.736;9.176;2022-09-13T09:43:12;26.30;90.50
8882;DHT22;4477;48.736;9.176;2022-09-13T09:45:40;26.60;87.10
8882;DHT22;4477;48.736;9.176;2022-09-13T09:48:15;26.90;88.80
8882;DHT22;4477;48.736;9.176;2022-09-13T09:50:48;27.40;87.00
8882;DHT22;4477;48.736;9.176;2022-09-13T09:53:21;28.20;81.00
8882;DHT22;4477;48.736;9.176;2022-09-13T09:55:54;28.80;74.10
8882;DHT22;4477;48.736;9.176;2022-09-13T09:58:38;29.20;69.50
8882;DHT22;4477;48.736;9.176;2022-09-13T10:01:05;29.30;67.80
8882;DHT22;4477;48.736;9.176;2022-09-13T10:03:41;29.30;66.80
8882;DHT22;4477;48.736;9.176;2022-09-13T10:06:10;29.10;64.60
8882;DHT22;4477;48.736;9.176;2022-09-13T10:08:40;28.60;65.10
8882;DHT22;4477;48.736;9.176;2022-09-13T10:11:07;28.20;65.90
8882;DHT22;4477;48.736;9.176;2022-09-13T10:13:36;28.00;63.10
8882;DHT22;4477;48.736;9.176;2022-09-13T10:16:22;28.00;68.30
8882;DHT22;4477;48.736;9.176;2022-09-13T10:18:52;28.00;66.40
8882;DHT22;4477;48.736;9.176;2022-09-13T10:21:23;28.10;70.30
8882;DHT22;4477;48.736;9.176;2022-09-13T10:24:14;28.20;64.80
8882;DHT22;4477;48.736;9.176;2022-09-13T10:26:41;28.20;68.30
8882;DHT22;4477;48.736;9.176;2022-09-13T10:29:14;27.90;67.10
8882;DHT22;4477;48.736;9.176;2022-09-13T10:31:43;28.00;67.40
8882;DHT22;4477;48.736;9.176;2022-09-13T10:34:15;28.30;70.20
8882;DHT22;4477;48.736;9.176;2022-09-13T10:36:51;28.30;66.10
8882;DHT22;4477;48.736;9.176;2022-09-13T10:39:20;28.60;67.10
8882;DHT22;4477;48.736;9.176;2022-09-13T10:41:50;28.80;62.50
8882;DHT22;4477;48.736;9.176;2022-09-13T10:44:29;28.60;67.80
8882;DHT22;4477;48.736;9.176;2022-09-13T10:47:02;29.00;59.30
8882;DHT22;4477;48.736;9.176;2022-09-13T10:49:43;29.10;58.50
8882;DHT22;4477;48.736;9.176;2022-09-13T10:52:25;29.50;58.00
8882;DHT22;4477;48.736;9.176;2022-09-13T10:54:53;29.10;54.40
8882;DHT22;4477;48.736;9.176;2022-09-13T10:57:35;29.30;55.50
8882;DHT22;4477;48.736;9.176;2022-09-13T11:00:08;29.60;56.50
8882;DHT22;4477;48.736;9.176;2022-09-13T11:02:48;30.30;54.00
8882;DHT22;4477;48.736;9.176;2022-09-13T11:05:21;30.80;58.10
8882;DHT22;4477;48.736;9.176;2022-09-13T11:08:06;31.20;48.70
8882;DHT22;4477;48.736;9.176;2022-09-13T11:10:45;31.30;48.80
8882;DHT22;4477;48.736;9.176;2022-09-13T11:13:21;32.30;48.00
8882;DHT22;4477;48.736;9.176;2022-09-13T11:15:58;31.80;48.40
8882;DHT22;4477;48.736;9.176;2022-09-13T11:21:26;30.90;52.40
8882;DHT22;4477;48.736;9.176;2022-09-13T11:24:25;30.40;50.60
8882;DHT22;4477;48.736;9.176;2022-09-13T11:26:59;30.40;52.90
8882;DHT22;4477;48.736;9.176;2022-09-13T11:29:44;31.00;57.40
8882;DHT22;4477;48.736;9.176;2022-09-13T11:32:24;31.50;54.00
8882;DHT22;4477;48.736;9.176;2022-09-13T11:35:13;31.90;48.80
8882;DHT22;4477;48.736;9.176;2022-09-13T11:37:48;32.20;50.40
8882;DHT22;4477;48.736;9.176;2022-09-13T11:40:37;33.00;50.30
8882;DHT22;4477;48.736;9.176;2022-09-13T11:43:25;33.40;49.20
8882;DHT22;4477;48.736;9.176;2022-09-13T11:46:05;33.90;47.30
8882;DHT22;4477;48.736;9.176;2022-09-13T11:49:05;34.50;46.50
8882;DHT22;4477;48.736;9.176;2022-09-13T11:51:45;34.00;45.80
8882;DHT22;4477;48.736;9.176;2022-09-13T11:54:33;34.00;48.30
8882;DHT22;4477;48.736;9.176;2022-09-13T11:57:06;34.20;44.60
8882;DHT22;4477;48.736;9.176;2022-09-13T11:59:37;34.40;47.40
8882;DHT22;4477;48.736;9.176;2022-09-13T12:02:17;33.80;42.80
8882;DHT22;4477;48.736;9.176;2022-09-13T12:04:51;33.80;47.20
8882;DHT22;4477;48.736;9.176;2022-09-13T12:07:28;33.60;45.60
8882;DHT22;4477;48.736;9.176;2022-09-13T12:10:02;33.30;46.90
8882;DHT22;4477;48.736;9.176;2022-09-13T12:12:33;33.00;45.20
8882;DHT22;4477;48.736;9.176;2022-09-13T12:15:05;32.70;46.40
8882;DHT22;4477;48.736;9.176;2022-09-13T12:17:37;32.30;48.90
8882;DHT22;4477;48.736;9.176;2022-09-13T12:20:14;31.80;49.20
8882;DHT22;4477;48.736;9.176;2022-09-13T12:22:43;31.40;44.40
8882;DHT22;4477;48.736;9.176;2022-09-13T12:25:18;31.60;48.60
8882;DHT22;4477;48.736;9.176;2022-09-13T12:27:50;32.00;47.10
8882;DHT22;4477;48.736;9.176;2022-09-13T12:30:21;32.50;48.40
8882;DHT22;4477;48.736;9.176;2022-09-13T12:32:49;32.70;44.10
8882;DHT22;4477;48.736;9.176;2022-09-13T12:35:24;32.80;43.80
8882;DHT22;4477;48.736;9.176;2022-09-13T12:38:11;33.00;48.10
8882;DHT22;4477;48.736;9.176;2022-09-13T12:41:20;33.50;45.70
8882;DHT22;4477;48.736;9.176;2022-09-13T12:44:11;33.40;46.00
8882;DHT22;4477;48.736;9.176;2022-09-13T12:47:00;33.60;46.00
8882;DHT22;4477;48.736;9.176;2022-09-13T12:49:54;33.50;45.20
8882;DHT22;4477;48.736;9.176;2022-09-13T12:52:33;33.00;47.40
8882;DHT22;4477;48.736;9.176;2022-09-13T12:55:28;32.50;48.40
8882;DHT22;4477;48.736;9.176;2022-09-13T12:58:14;33.00;48.50
8882;DHT22;4477;48.736;9.176;2022-09-13T13:00:46;33.60;48.20
8882;DHT22;4477;48.736;9.176;2022-09-13T13:03:27;33.90;39.30
8882;DHT22;4477;48.736;9.176;2022-09-13T13:06:06;33.80;41.70
8882;DHT22;4477;48.736;9.176;2022-09-13T13:08:37;34.00;45.70
8882;DHT22;4477;48.736;9.176;2022-09-13T13:11:07;34.30;40.90
8882;DHT22;4477;48.736;9.176;2022-09-13T13:13:37;34.00;38.30
8882;DHT22;4477;48.736;9.176;2022-09-13T13:16:21;33.50;39.70
8882;DHT22;4477;48.736;9.176;2022-09-13T13:18:49;32.70;42.10
8882;DHT22;4477;48.736;9.176;2022-09-13T13:21:37;31.80;39.40
8882;DHT22;4477;48.736;9.176;2022-09-13T13:27:39;30.90;45.50
8882;DHT22;4477;48.736;9.176;2022-09-13T13:30:41;32.00;46.80
8882;DHT22;4477;48.736;9.176;2022-09-13T13:33:19;34.10;45.60
8882;DHT22;4477;48.736;9.176;2022-09-13T13:35:47;35.00;39.40
8882;DHT22;4477;48.736;9.176;2022-09-13T13:38:33;35.80;40.20
8882;DHT22;4477;48.736;9.176;2022-09-13T13:43:50;36.40;38.40
8882;DHT22;4477;48.736;9.176;2022-09-13T13:46:27;36.80;34.80
8882;DHT22;4477;48.736;9.176;2022-09-13T13:48:55;36.50;33.10
8882;DHT22;4477;48.736;9.176;2022-09-13T13:51:26;36.40;36.40
8882;DHT22;4477;48.736;9.176;2022-09-13T13:53:59;36.10;38.50
8882;DHT22;4477;48.736;9.176;2022-09-13T13:56:32;35.70;35.30
8882;DHT22;4477;48.736;9.176;2022-09-13T13:59:06;35.10;38.60
8882;DHT22;4477;48.736;9.176;2022-09-13T14:01:36;34.10;37.50
8882;DHT22;4477;48.736;9.176;2022-09-13T14:10:43;33.20;40.40
8882;DHT22;4477;48.736;9.176;2022-09-13T14:13:27;33.00;40.20
8882;DHT22;4477;48.736;9.176;2022-09-13T14:16:05;32.70;40.50
8882;DHT22;4477;48.736;9.176;2022-09-13T14:18:55;32.60;43.40
8882;DHT22;4477;48.736;9.176;2022-09-13T14:21:27;32.40;38.40
8882;DHT22;4477;48.736;9.176;2022-09-13T14:24:08;32.30;40.40
8882;DHT22;4477;48.736;9.176;2022-09-13T14:26:41;32.10;41.20
8882;DHT22;4477;48.736;9.176;2022-09-13T14:29:08;32.40;44.70
8882;DHT22;4477;48.736;9.176;2022-09-13T14:31:37;32.90;41.80
8882;DHT22;4477;48.736;9.176;2022-09-13T14:34:04;33.50;45.50
8882;DHT22;4477;48.736;9.176;2022-09-13T14:36:30;34.20;41.30
8882;DHT22;4477;48.736;9.176;2022-09-13T14:38:58;34.40;36.50
8882;DHT22;4477;48.736;9.176;2022-09-13T14:41:30;34.00;41.00
8882;DHT22;4477;48.736;9.176;2022-09-13T14:44:14;33.70;38.10
8882;DHT22;4477;48.736;9.176;2022-09-13T14:46:44;33.80;35.50
8882;DHT22;4477;48.736;9.176;2022-09-13T14:49:18;34.10;40.10
8882;DHT22;4477;48.736;9.176;2022-09-13T14:51:51;33.90;39.50
8882;DHT22;4477;48.736;9.176;2022-09-13T14:54:27;33.80;41.90
8882;DHT22;4477;48.736;9.176;2022-09-13T14:56:58;33.80;39.80
8882;DHT22;4477;48.736;9.176;2022-09-13T14:59:29;34.20;38.80
8882;DHT22;4477;48.736;9.176;2022-09-13T15:02:04;33.90;39.70
8882;DHT22;4477;48.736;9.176;2022-09-13T15:04:32;32.80;41.60
8882;DHT22;4477;48.736;9.176;2022-09-13T15:07:07;32.40;39.70
8882;DHT22;4477;48.736;9.176;2022-09-13T15:09:34;31.90;41.60
8882;DHT22;4477;48.736;9.176;2022-09-13T15:12:03;31.20;39.00
8882;DHT22;4477;48.736;9.176;2022-09-13T15:14:31;30.80;41.60
8882;DHT22;4477;48.736;9.176;2022-09-13T15:17:06;30.70;43.80
8882;DHT22;4477;48.736;9.176;2022-09-13T15:19:38;31.10;47.00
8882;DHT22;4477;48.736;9.176;2022-09-13T15:22:18;31.60;45.30
8882;DHT22;4477;48.736;9.176;2022-09-13T15:24:48;32.00;42.10
8882;DHT22;4477;48.736;9.176;2022-09-13T15:27:21;32.30;40.10
8882;DHT22;4477;48.736;9.176;2022-09-13T15:29:50;32.60;39.70
8882;DHT22;4477;48.736;9.176;2022-09-13T15:32:30;32.20;38.50
8882;DHT22;4477;48.736;9.176;2022-09-13T15:35:00;31.10;39.60
8882;DHT22;4477;48.736;9.176;2022-09-13T15:37:33;30.00;38.30
8882;DHT22;4477;48.736;9.176;2022-09-13T15:40:16;29.00;39.30
8882;DHT22;4477;48.736;9.176;2022-09-13T15:42:45;28.40;40.40
8882;DHT22;4477;48.736;9.176;2022-09-13T15:45:13;27.90;41.90
8882;DHT22;4477;48.736;9.176;2022-09-13T15:47:44;27.40;41.60
8882;DHT22;4477;48.736;9.176;2022-09-13T15:50:19;27.00;43.00
8882;DHT22;4477;48.736;9.176;2022-09-13T15:52:46;26.60;44.00
8882;DHT22;4477;48.736;9.176;2022-09-13T15:55:12;26.30;45.60
8882;DHT22;4477;48.736;9.176;2022-09-13T15:57:40;26.10;47.80
8882;DHT22;4477;48.736;9.176;2022-09-13T16:00:14;25.80;49.70
8882;DHT22;4477;48.736;9.176;2022-09-13T16:02:44;25.50;52.40
8882;DHT22;4477;48.736;9.176;2022-09-13T16:05:12;25.30;52.40
8882;DHT22;4477;48.736;9.176;2022-09-13T16:07:39;25.10;53.40
8882;DHT22;4477;48.736;9.176;2022-09-13T16:10:11;24.90;54.50
8882;DHT22;4477;48.736;9.176;2022-09-13T16:12:38;24.70;55.50
8882;DHT22;4477;48.736;9.176;2022-09-13T16:15:06;24.60;55.00
8882;DHT22;4477;48.736;9.176;2022-09-13T16:17:33;24.40;56.40
8882;DHT22;4477;48.736;9.176;2022-09-13T16:20:02;24.30;56.80
8882;DHT22;4477;48.736;9.176;2022-09-13T16:22:30;24.20;56.80
8882;DHT22;4477;48.736;9.176;2022-09-13T16:24:57;24.00;56.10
8882;DHT22;4477;48.736;9.176;2022-09-13T16:27:24;23.90;56.40
8882;DHT22;4477;48.736;9.176;2022-09-13T16:29:52;23.80;57.10
8882;DHT22;4477;48.736;9.176;2022-09-13T16:32:19;23.70;58.00
8882;DHT22;4477;48.736;9.176;2022-09-13T16:34:46;23.60;57.70
8882;DHT22;4477;48.736;9.176;2022-09-13T16:37:16;23.40;58.90
8882;DHT22;4477;48.736;9.176;2022-09-13T16:39:43;23.30;59.40
8882;DHT22;4477;48.736;9.176;2022-09-13T16:42:10;23.20;59.90
8882;DHT22;4477;48.736;9.176;2022-09-13T16:44:37;23.00;62.10
8882;DHT22;4477;48.736;9.176;2022-09-13T16:47:04;22.90;61.80
8882;DHT22;4477;48.736;9.176;2022-09-13T16:49:32;22.70;63.00
8882;DHT22;4477;48.736;9.176;2022-09-13T16:51:58;22.60;62.80
8882;DHT22;4477;48.736;9.176;2022-09-13T16:54:27;22.50;62.80
8882;DHT22;4477;48.736;9.176;2022-09-13T16:56:54;22.40;62.70
8882;DHT22;4477;48.736;9.176;2022-09-13T16:59:22;22.30;66.40